Time;durP1;ratioP1;P1;durP2;ratioP2;P2;SDS_P1;SDS_P2;PMS_P1;PMS_P2;Temp;Humidity;BMP_temperature;BMP_pressure;BME280_temperature;BME280_humidity;BME280_pressure;Samples;Min_cycle;Max_cycle;Signal;HPM_P1;HPM_P2
2022/09/16 00:00:58;;;;;;;;;;;23.90;39.80;;;;;;6119188;23;19923;-81
2022/09/16 00:03:24;;;;;;;;;;;24.00;40.00;;;;;;6118378;23;19917;-82
2022/09/16 00:05:52;;;;;;;;;;;23.90;39.60;;;;;;6118711;23;19924;-81
2022/09/16 00:08:19;;;;;;;;;;;24.00;39.80;;;;;;6119432;23;19917;-81
2022/09/16 00:10:46;;;;;;;;;;;23.90;39.80;;;;;;6118181;23;19917;-82
2022/09/16 00:13:13;;;;;;;;;;;24.00;40.10;;;;;;6119281;23;20249;-81
2022/09/16 00:15:43;;;;;;;;;;;24.00;39.80;;;;;;6118426;23;19917;-82
2022/09/16 00:18:10;;;;;;;;;;;23.90;39.80;;;;;;6118687;23;19940;-81
2022/09/16 00:20:47;;;;;;;;;;;23.90;39.80;;;;;;6118038;23;19917;-81
2022/09/16 00:23:14;;;;;;;;;;;24.00;40.00;;;;;;6119306;23;19917;-81
2022/09/16 00:25:41;;;;;;;;;;;23.90;39.80;;;;;;6093833;23;19924;-81
2022/09/16 00:28:08;;;;;;;;;;;23.90;39.80;;;;;;6118919;23;20393;-82
2022/09/16 00:30:35;;;;;;;;;;;23.90;40.00;;;;;;6118168;23;20350;-81
2022/09/16 00:33:02;;;;;;;;;;;23.90;39.90;;;;;;6118850;23;19917;-81
2022/09/16 00:35:28;;;;;;;;;;;24.00;39.70;;;;;;6118274;23;20380;-81
2022/09/16 00:37:55;;;;;;;;;;;24.00;39.80;;;;;;6118963;23;19959;-81
2022/09/16 00:40:22;;;;;;;;;;;24.00;40.20;;;;;;6118896;23;19917;-81
2022/09/16 00:42:48;;;;;;;;;;;23.90;40.30;;;;;;6118111;23;20239;-82
2022/09/16 00:45:18;;;;;;;;;;;23.90;40.40;;;;;;6119002;23;19988;-81
2022/09/16 00:47:50;;;;;;;;;;;23.80;40.40;;;;;;6094044;23;19921;-82
2022/09/16 00:50:19;;;;;;;;;;;23.80;40.50;;;;;;6118710;23;19920;-82
2022/09/16 00:52:46;;;;;;;;;;;23.80;40.60;;;;;;6117837;23;19917;-81
2022/09/16 00:55:15;;;;;;;;;;;23.80;41.00;;;;;;6118705;23;19917;-81
2022/09/16 00:57:43;;;;;;;;;;;23.80;40.80;;;;;;6118421;23;20294;-81
2022/09/16 01:00:12;;;;;;;;;;;23.70;41.00;;;;;;6096187;23;20270;-82
2022/09/16 01:02:41;;;;;;;;;;;23.70;40.90;;;;;;6118190;23;19952;-81
2022/09/16 01:05:11;;;;;;;;;;;23.70;40.90;;;;;;6118785;23;19918;-81
2022/09/16 01:07:39;;;;;;;;;;;23.70;40.70;;;;;;6119185;23;20360;-81
2022/09/16 01:10:06;;;;;;;;;;;23.70;40.90;;;;;;6121075;23;19929;-80
2022/09/16 01:12:33;;;;;;;;;;;23.70;40.70;;;;;;6120045;23;19917;-81
2022/09/16 01:15:01;;;;;;;;;;;23.70;40.90;;;;;;6120517;23;19996;-82
2022/09/16 01:17:43;;;;;;;;;;;23.70;41.00;;;;;;6120519;23;19921;-81
2022/09/16 01:20:28;;;;;;;;;;;23.70;40.90;;;;;;6095447;23;19951;-81
2022/09/16 01:23:07;;;;;;;;;;;23.70;40.90;;;;;;6095316;23;19996;-81
2022/09/16 01:26:09;;;;;;;;;;;23.70;40.60;;;;;;6096379;23;20299;-81
2022/09/16 01:28:56;;;;;;;;;;;23.70;40.70;;;;;;5985774;23;19929;-81
2022/09/16 01:31:29;;;;;;;;;;;23.70;40.70;;;;;;6082079;23;19916;-81
2022/09/16 01:34:08;;;;;;;;;;;23.70;40.90;;;;;;6096147;23;20274;-81
2022/09/16 01:36:52;;;;;;;;;;;23.60;41.00;;;;;;6119925;23;20250;-81
2022/09/16 01:39:26;;;;;;;;;;;23.60;40.90;;;;;;6119555;23;20299;-81
2022/09/16 01:42:13;;;;;;;;;;;23.60;41.00;;;;;;6097443;23;19996;-81
2022/09/16 01:44:44;;;;;;;;;;;23.60;40.90;;;;;;6095238;23;20371;-81
2022/09/16 01:47:17;;;;;;;;;;;23.50;40.70;;;;;;6095931;23;19917;-81
2022/09/16 01:49:44;;;;;;;;;;;23.60;40.40;;;;;;6119842;23;19917;-81
2022/09/16 01:52:29;;;;;;;;;;;23.60;40.40;;;;;;6095806;23;19941;-80
2022/09/16 01:55:00;;;;;;;;;;;23.60;40.50;;;;;;6095540;23;19917;-81
2022/09/16 01:57:44;;;;;;;;;;;23.60;40.40;;;;;;6119996;23;20060;-81
2022/09/16 02:03:34;;;;;;;;;;;23.60;40.10;;;;;;6096757;23;19921;-81
2022/09/16 02:06:21;;;;;;;;;;;23.70;40.10;;;;;;6120134;23;19997;-81
2022/09/16 02:08:58;;;;;;;;;;;23.70;40.00;;;;;;6119425;23;20356;-81
2022/09/16 02:11:25;;;;;;;;;;;23.70;39.60;;;;;;6119260;23;19928;-81
2022/09/16 02:13:53;;;;;;;;;;;23.70;39.80;;;;;;6119909;23;19932;-81
2022/09/16 02:16:28;;;;;;;;;;;23.70;39.80;;;;;;6119892;23;19925;-82
2022/09/16 02:19:01;;;;;;;;;;;23.70;40.30;;;;;;6118887;23;19992;-80
2022/09/16 02:21:30;;;;;;;;;;;23.70;39.80;;;;;;6118931;23;19921;-81
2022/09/16 02:23:59;;;;;;;;;;;23.70;39.80;;;;;;6119669;23;19988;-81
2022/09/16 02:26:29;;;;;;;;;;;23.60;40.20;;;;;;6119950;23;19917;-80
2022/09/16 02:28:57;;;;;;;;;;;23.60;40.20;;;;;;6119175;23;19921;-81
2022/09/16 02:31:26;;;;;;;;;;;23.50;40.10;;;;;;6119406;23;19917;-80
2022/09/16 02:33:56;;;;;;;;;;;23.50;40.10;;;;;;6119045;23;19925;-81
2022/09/16 02:36:24;;;;;;;;;;;23.50;40.30;;;;;;6119613;23;20242;-81
2022/09/16 02:38:54;;;;;;;;;;;23.50;40.50;;;;;;6118622;23;19992;-81
2022/09/16 02:41:21;;;;;;;;;;;23.50;39.80;;;;;;6119980;23;19917;-81
2022/09/16 02:43:48;;;;;;;;;;;23.50;39.90;;;;;;6119012;23;19923;-80
2022/09/16 02:46:33;;;;;;;;;;;23.50;40.10;;;;;;6119494;23;19921;-82
2022/09/16 02:49:09;;;;;;;;;;;23.50;40.20;;;;;;6094636;23;19977;-81
2022/09/16 02:52:08;;;;;;;;;;;23.50;40.20;;;;;;6118562;23;19918;-82
2022/09/16 02:54:39;;;;;;;;;;;23.50;40.00;;;;;;6063966;23;20294;-82
2022/09/16 02:57:06;;;;;;;;;;;23.50;40.00;;;;;;6118725;23;19917;-81
2022/09/16 02:59:32;;;;;;;;;;;23.50;40.00;;;;;;6119072;23;19926;-81
2022/09/16 03:02:00;;;;;;;;;;;23.50;40.00;;;;;;6095951;23;19989;-81
2022/09/16 03:04:27;;;;;;;;;;;23.50;40.00;;;;;;6119439;23;19917;-80
2022/09/16 03:06:53;;;;;;;;;;;23.50;40.10;;;;;;6118343;23;20357;-81
2022/09/16 03:09:23;;;;;;;;;;;23.50;40.10;;;;;;6119813;23;20254;-81
2022/09/16 03:11:53;;;;;;;;;;;23.40;40.00;;;;;;6118575;23;20257;-80
2022/09/16 03:14:46;;;;;;;;;;;23.40;39.80;;;;;;6095535;23;19917;-80
2022/09/16 03:17:24;;;;;;;;;;;23.40;39.80;;;;;;6083390;23;19924;-81
2022/09/16 03:19:54;;;;;;;;;;;23.50;39.50;;;;;;6118359;23;19925;-80
2022/09/16 03:22:40;;;;;;;;;;;23.50;39.70;;;;;;6095029;23;19921;-82
2022/09/16 03:25:06;;;;;;;;;;;23.50;39.60;;;;;;6094158;23;19917;-81
2022/09/16 03:27:38;;;;;;;;;;;23.50;39.60;;;;;;6094640;23;19917;-80
2022/09/16 03:30:06;;;;;;;;;;;23.50;39.60;;;;;;6118031;23;19920;-82
2022/09/16 03:32:43;;;;;;;;;;;23.50;39.90;;;;;;6118754;23;19964;-81
2022/09/16 03:35:12;;;;;;;;;;;23.40;39.80;;;;;;6118462;23;19917;-80
2022/09/16 03:37:39;;;;;;;;;;;23.40;39.70;;;;;;6119009;23;19917;-80
2022/09/16 03:40:08;;;;;;;;;;;23.40;39.70;;;;;;6118448;23;20228;-81
2022/09/16 03:42:37;;;;;;;;;;;23.40;39.50;;;;;;6119009;23;20190;-80
2022/09/16 03:45:05;;;;;;;;;;;23.40;39.30;;;;;;6118053;23;19927;-81
2022/09/16 03:47:32;;;;;;;;;;;23.40;39.70;;;;;;6119233;23;19928;-81
2022/09/16 03:49:58;;;;;;;;;;;23.30;39.50;;;;;;6118440;23;19955;-81
2022/09/16 03:52:25;;;;;;;;;;;23.40;39.60;;;;;;6096019;23;20329;-81
2022/09/16 03:54:52;;;;;;;;;;;23.40;39.50;;;;;;6118427;23;19988;-81
2022/09/16 03:57:19;;;;;;;;;;;23.30;39.40;;;;;;6095977;23;19960;-81
2022/09/16 03:59:45;;;;;;;;;;;23.30;39.60;;;;;;6119250;23;19921;-82
2022/09/16 04:02:12;;;;;;;;;;;23.20;39.80;;;;;;6118494;23;19920;-81
2022/09/16 04:04:39;;;;;;;;;;;23.20;40.20;;;;;;6119085;23;20261;-81
2022/09/16 04:07:05;;;;;;;;;;;23.20;40.00;;;;;;6118358;23;19987;-81
2022/09/16 04:09:32;;;;;;;;;;;23.10;39.90;;;;;;6095130;23;19917;-81
2022/09/16 04:11:59;;;;;;;;;;;23.10;39.70;;;;;;6118057;23;19988;-81
2022/09/16 04:14:25;;;;;;;;;;;23.10;39.60;;;;;;6118608;23;19992;-81
2022/09/16 04:16:53;;;;;;;;;;;23.20;39.60;;;;;;6118014;23;19917;-82
2022/09/16 04:19:20;;;;;;;;;;;23.20;39.40;;;;;;6118400;23;20402;-82
2022/09/16 04:21:47;;;;;;;;;;;23.20;39.70;;;;;;6098523;23;19953;-81
2022/09/16 04:24:13;;;;;;;;;;;23.20;39.80;;;;;;6093739;23;20393;-81
2022/09/16 04:26:40;;;;;;;;;;;23.10;39.50;;;;;;6119051;23;20338;-81
2022/09/16 04:29:07;;;;;;;;;;;23.10;39.80;;;;;;6095401;23;19921;-82
2022/09/16 04:31:34;;;;;;;;;;;23.10;39.80;;;;;;6119352;23;19923;-81
2022/09/16 04:34:01;;;;;;;;;;;23.10;40.00;;;;;;6118205;23;19923;-81
2022/09/16 04:36:28;;;;;;;;;;;23.10;39.70;;;;;;6118610;23;19959;-81
2022/09/16 04:38:55;;;;;;;;;;;23.00;40.00;;;;;;6094884;23;19972;-82
2022/09/16 04:41:22;;;;;;;;;;;23.00;40.20;;;;;;6120283;23;19925;-82
2022/09/16 04:43:51;;;;;;;;;;;22.90;40.40;;;;;;6120765;23;20025;-81
2022/09/16 04:46:18;;;;;;;;;;;22.90;40.20;;;;;;6120045;23;20282;-82
2022/09/16 04:48:48;;;;;;;;;;;22.80;40.60;;;;;;6120594;23;19956;-82
2022/09/16 04:51:16;;;;;;;;;;;22.80;39.90;;;;;;6119877;23;19984;-82
2022/09/16 04:53:43;;;;;;;;;;;22.90;40.30;;;;;;6120681;23;19917;-82
2022/09/16 04:56:15;;;;;;;;;;;22.80;40.30;;;;;;6119759;23;19992;-82
2022/09/16 04:58:43;;;;;;;;;;;22.80;40.00;;;;;;6096487;23;19924;-82
2022/09/16 05:01:13;;;;;;;;;;;22.80;40.20;;;;;;6119962;23;19996;-82
2022/09/16 05:03:41;;;;;;;;;;;22.80;39.80;;;;;;6120610;23;20257;-82
2022/09/16 05:06:12;;;;;;;;;;;22.80;40.10;;;;;;6119639;23;19921;-82
2022/09/16 05:08:46;;;;;;;;;;;22.80;40.10;;;;;;6119142;23;19921;-82
2022/09/16 05:11:14;;;;;;;;;;;22.80;39.90;;;;;;6119848;23;20338;-83
2022/09/16 05:13:41;;;;;;;;;;;22.90;39.70;;;;;;6119849;23;19936;-82
2022/09/16 05:16:09;;;;;;;;;;;22.90;39.90;;;;;;6119730;23;19921;-83
2022/09/16 05:18:37;;;;;;;;;;;22.90;39.90;;;;;;6119381;23;19917;-83
2022/09/16 05:21:05;;;;;;;;;;;22.90;40.10;;;;;;6118930;23;19983;-83
2022/09/16 05:23:32;;;;;;;;;;;22.80;40.50;;;;;;6119944;23;19921;-83
2022/09/16 05:26:06;;;;;;;;;;;22.80;40.40;;;;;;6118980;23;19988;-83
2022/09/16 05:28:34;;;;;;;;;;;22.70;40.10;;;;;;6120014;23;19917;-82
2022/09/16 05:31:17;;;;;;;;;;;22.80;40.00;;;;;;6119479;23;20245;-82
2022/09/16 05:33:46;;;;;;;;;;;22.80;40.30;;;;;;6119956;23;19925;-82
2022/09/16 05:36:14;;;;;;;;;;;22.80;40.20;;;;;;6096333;23;19921;-83
2022/09/16 05:38:40;;;;;;;;;;;22.80;40.00;;;;;;6119860;23;19920;-82
2022/09/16 05:41:24;;;;;;;;;;;22.80;40.00;;;;;;6117144;23;19917;-82
2022/09/16 05:43:51;;;;;;;;;;;22.80;40.00;;;;;;6121611;23;19917;-84
2022/09/16 05:46:19;;;;;;;;;;;22.80;40.30;;;;;;6118104;23;19921;-81
2022/09/16 05:48:47;;;;;;;;;;;22.60;43.70;;;;;;6120164;23;19917;-83
2022/09/16 05:51:15;;;;;;;;;;;22.60;41.40;;;;;;6119378;23;20026;-82
2022/09/16 05:53:47;;;;;;;;;;;22.50;41.70;;;;;;6118971;23;19947;-83
2022/09/16 05:56:32;;;;;;;;;;;22.50;41.70;;;;;;6119387;23;19992;-82
2022/09/16 05:58:59;;;;;;;;;;;22.50;40.60;;;;;;6119627;23;19984;-82
2022/09/16 06:01:29;;;;;;;;;;;22.60;40.70;;;;;;6118639;23;19939;-83
2022/09/16 06:03:56;;;;;;;;;;;22.60;41.50;;;;;;6119067;23;19928;-82
2022/09/16 06:06:24;;;;;;;;;;;22.60;40.70;;;;;;6096627;23;19923;-82
2022/09/16 06:08:52;;;;;;;;;;;22.70;42.70;;;;;;6124506;23;20313;-82
2022/09/16 06:11:19;;;;;;;;;;;22.70;43.40;;;;;;6102248;23;19991;-82
2022/09/16 06:13:45;;;;;;;;;;;22.70;43.70;;;;;;6103952;23;19991;-81
2022/09/16 06:16:13;;;;;;;;;;;22.70;45.30;;;;;;6120478;23;19941;-81
2022/09/16 06:18:40;;;;;;;;;;;22.60;45.90;;;;;;6120512;23;19921;-81
2022/09/16 06:21:10;;;;;;;;;;;22.60;42.70;;;;;;6125606;23;19917;-81
2022/09/16 06:23:38;;;;;;;;;;;22.60;43.00;;;;;;6100934;23;19933;-81
2022/09/16 06:26:06;;;;;;;;;;;22.70;45.30;;;;;;6098011;23;20322;-81
2022/09/16 06:28:33;;;;;;;;;;;22.70;44.80;;;;;;6096871;23;19917;-82
2022/09/16 06:31:14;;;;;;;;;;;22.70;44.00;;;;;;6119685;23;19917;-82
2022/09/16 06:33:41;;;;;;;;;;;22.80;45.10;;;;;;6119391;23;19976;-81
2022/09/16 06:36:09;;;;;;;;;;;22.80;44.30;;;;;;6119420;23;20337;-81
2022/09/16 06:38:36;;;;;;;;;;;22.80;42.40;;;;;;6119024;23;20334;-82
2022/09/16 06:41:07;;;;;;;;;;;22.90;41.30;;;;;;6119790;23;19996;-82
2022/09/16 06:43:34;;;;;;;;;;;23.00;40.70;;;;;;6118902;23;19924;-81
2022/09/16 06:46:05;;;;;;;;;;;23.00;40.60;;;;;;6118922;23;19992;-82
2022/09/16 06:48:32;;;;;;;;;;;23.10;40.50;;;;;;6118374;23;19917;-82
2022/09/16 06:51:00;;;;;;;;;;;23.10;40.50;;;;;;6119594;23;19917;-82
2022/09/16 06:53:28;;;;;;;;;;;23.10;40.00;;;;;;6118820;23;20291;-81
2022/09/16 06:55:58;;;;;;;;;;;23.20;40.10;;;;;;6096415;23;19996;-81
2022/09/16 06:58:25;;;;;;;;;;;23.20;39.90;;;;;;6118446;23;20005;-83
2022/09/16 07:00:52;;;;;;;;;;;23.30;39.90;;;;;;6126222;23;19989;-83
2022/09/16 07:03:18;;;;;;;;;;;23.40;40.30;;;;;;6118135;23;20345;-83
2022/09/16 07:05:56;;;;;;;;;;;23.40;39.90;;;;;;6119000;23;19992;-82
2022/09/16 07:08:23;;;;;;;;;;;23.50;39.60;;;;;;6119093;23;19917;-82
2022/09/16 07:10:54;;;;;;;;;;;23.60;39.10;;;;;;6120281;23;19944;-82
2022/09/16 07:13:21;;;;;;;;;;;23.70;39.10;;;;;;6096178;23;19924;-81
2022/09/16 07:15:48;;;;;;;;;;;23.80;38.60;;;;;;6119908;23;19921;-82
2022/09/16 07:18:35;;;;;;;;;;;23.90;38.60;;;;;;6115044;23;20394;-81
2022/09/16 07:21:03;;;;;;;;;;;23.90;37.90;;;;;;6119876;23;19939;-82
2022/09/16 07:23:31;;;;;;;;;;;24.00;37.90;;;;;;6118404;23;19989;-82
2022/09/16 07:26:02;;;;;;;;;;;24.10;37.90;;;;;;6119216;23;19923;-83
2022/09/16 07:28:30;;;;;;;;;;;24.20;37.90;;;;;;6118376;23;19928;-83
2022/09/16 07:30:59;;;;;;;;;;;24.30;38.40;;;;;;6119099;23;19953;-82
2022/09/16 07:33:26;;;;;;;;;;;24.40;38.10;;;;;;6118274;23;20258;-83
2022/09/16 07:35:56;;;;;;;;;;;24.40;37.60;;;;;;6119156;23;20305;-82
2022/09/16 07:38:23;;;;;;;;;;;24.50;37.90;;;;;;6118760;23;19920;-82
2022/09/16 07:40:50;;;;;;;;;;;24.60;37.30;;;;;;6119193;23;19917;-82
2022/09/16 07:43:16;;;;;;;;;;;24.70;39.20;;;;;;6118894;23;19917;-82
2022/09/16 07:45:43;;;;;;;;;;;24.80;43.90;;;;;;6116343;23;20257;-83
2022/09/16 07:48:10;;;;;;;;;;;25.00;45.50;;;;;;6118301;23;19924;-82
2022/09/16 07:50:36;;;;;;;;;;;25.10;45.90;;;;;;6118389;23;20223;-82
2022/09/16 07:53:04;;;;;;;;;;;25.10;46.30;;;;;;6118638;23;20297;-82
2022/09/16 07:55:30;;;;;;;;;;;25.20;43.90;;;;;;6118193;23;19924;-81
2022/09/16 07:57:57;;;;;;;;;;;25.40;42.40;;;;;;6118823;23;19923;-82
2022/09/16 08:00:25;;;;;;;;;;;25.50;41.50;;;;;;6117907;23;19917;-81
2022/09/16 08:02:55;;;;;;;;;;;25.60;40.90;;;;;;6118497;23;19917;-81
2022/09/16 08:05:22;;;;;;;;;;;25.80;40.40;;;;;;6118229;23;19918;-82
2022/09/16 08:07:48;;;;;;;;;;;25.80;39.30;;;;;;6119197;23;19917;-82
2022/09/16 08:10:15;;;;;;;;;;;25.90;38.90;;;;;;6118948;23;19921;-82
2022/09/16 08:12:45;;;;;;;;;;;26.00;41.00;;;;;;6115622;23;20015;-82
2022/09/16 08:15:11;;;;;;;;;;;26.20;41.20;;;;;;6118685;23;19988;-82
2022/09/16 08:17:38;;;;;;;;;;;26.30;41.90;;;;;;6118454;23;19972;-82
2022/09/16 08:20:06;;;;;;;;;;;26.40;43.20;;;;;;6118779;23;19921;-82
2022/09/16 08:22:33;;;;;;;;;;;26.30;42.70;;;;;;6118354;23;19924;-82
2022/09/16 08:24:59;;;;;;;;;;;26.50;44.60;;;;;;6094534;23;19923;-82
2022/09/16 08:27:26;;;;;;;;;;;26.60;43.80;;;;;;6118141;23;20001;-82
2022/09/16 08:29:53;;;;;;;;;;;26.70;44.40;;;;;;6118913;23;19984;-82
2022/09/16 08:32:20;;;;;;;;;;;26.60;43.60;;;;;;6118697;23;20411;-82
2022/09/16 08:34:47;;;;;;;;;;;26.60;44.20;;;;;;6117627;23;19943;-82
2022/09/16 08:37:14;;;;;;;;;;;26.80;44.20;;;;;;6118424;23;19945;-82
2022/09/16 08:39:41;;;;;;;;;;;27.00;44.40;;;;;;6117594;23;19918;-82
2022/09/16 08:42:16;;;;;;;;;;;27.10;43.60;;;;;;6095560;23;19918;-82
2022/09/16 08:44:50;;;;;;;;;;;27.20;43.60;;;;;;6116868;23;19917;-82
2022/09/16 08:47:36;;;;;;;;;;;27.30;43.40;;;;;;6094407;23;19940;-82
2022/09/16 08:50:04;;;;;;;;;;;27.50;44.60;;;;;;6093133;23;19941;-82
2022/09/16 08:52:32;;;;;;;;;;;27.60;44.50;;;;;;6118356;23;19990;-82
2022/09/16 08:55:01;;;;;;;;;;;27.60;43.50;;;;;;6117991;23;19996;-82
2022/09/16 08:57:29;;;;;;;;;;;27.50;43.10;;;;;;6119554;23;19917;-81
2022/09/16 09:00:09;;;;;;;;;;;27.40;44.40;;;;;;6117695;23;19992;-84
2022/09/16 09:02:51;;;;;;;;;;;27.40;44.60;;;;;;6118530;23;19917;-82
2022/09/16 09:05:27;;;;;;;;;;;27.40;44.00;;;;;;6093508;23;19921;-82
2022/09/16 09:08:04;;;;;;;;;;;27.50;43.70;;;;;;6094656;23;19955;-83
2022/09/16 09:10:43;;;;;;;;;;;27.60;43.90;;;;;;6118343;23;19980;-82
2022/09/16 09:13:20;;;;;;;;;;;27.90;44.30;;;;;;6093642;23;19928;-82
2022/09/16 09:15:57;;;;;;;;;;;28.10;42.80;;;;;;6118201;23;20290;-83
2022/09/16 09:18:24;;;;;;;;;;;28.20;40.50;;;;;;6117557;23;19917;-82
2022/09/16 09:21:10;;;;;;;;;;;28.10;41.90;;;;;;6093793;23;19917;-82
2022/09/16 09:23:36;;;;;;;;;;;27.70;41.30;;;;;;6093510;23;19917;-81
2022/09/16 09:26:07;;;;;;;;;;;27.90;43.90;;;;;;6094034;23;19917;-82
2022/09/16 09:28:42;;;;;;;;;;;28.00;41.80;;;;;;6118326;23;20239;-82
2022/09/16 09:31:32;;;;;;;;;;;28.20;41.70;;;;;;6119739;23;19922;-82
2022/09/16 09:34:17;;;;;;;;;;;28.20;43.00;;;;;;6119082;23;19961;-82
2022/09/16 09:36:51;;;;;;;;;;;28.30;41.10;;;;;;6094709;23;20250;-83
2022/09/16 09:39:25;;;;;;;;;;;28.20;41.70;;;;;;6119664;23;19917;-82
2022/09/16 09:41:54;;;;;;;;;;;28.20;41.50;;;;;;6118269;23;20363;-82
2022/09/16 09:44:39;;;;;;;;;;;28.40;41.70;;;;;;6119653;23;19921;-83
2022/09/16 09:47:09;;;;;;;;;;;28.60;42.10;;;;;;6094380;23;19917;-83
2022/09/16 09:49:40;;;;;;;;;;;28.70;40.00;;;;;;6096477;23;19924;-82
2022/09/16 09:52:11;;;;;;;;;;;28.50;38.90;;;;;;6118942;23;19917;-83
2022/09/16 09:54:37;;;;;;;;;;;28.70;40.30;;;;;;6119392;23;19956;-83
2022/09/16 09:57:17;;;;;;;;;;;28.80;38.50;;;;;;6119027;23;20322;-83
2022/09/16 09:59:56;;;;;;;;;;;28.90;38.90;;;;;;6118806;23;20342;-83
2022/09/16 10:02:22;;;;;;;;;;;29.00;39.70;;;;;;6119670;23;19924;-82
2022/09/16 10:04:49;;;;;;;;;;;28.70;36.80;;;;;;6094891;23;20307;-83
2022/09/16 10:07:18;;;;;;;;;;;28.60;37.00;;;;;;6119579;23;19920;-82
2022/09/16 10:09:50;;;;;;;;;;;28.70;40.40;;;;;;6119096;23;19917;-83
2022/09/16 10:12:26;;;;;;;;;;;29.00;37.50;;;;;;6119426;23;19921;-83
2022/09/16 10:14:53;;;;;;;;;;;29.00;36.90;;;;;;6094137;23;19923;-83
2022/09/16 10:17:20;;;;;;;;;;;29.00;36.40;;;;;;6119605;23;19988;-83
2022/09/16 10:19:50;;;;;;;;;;;28.80;38.20;;;;;;6118935;23;19923;-83
2022/09/16 10:22:24;;;;;;;;;;;28.80;38.10;;;;;;6095346;23;19988;-82
2022/09/16 10:24:53;;;;;;;;;;;28.80;38.40;;;;;;6094092;23;19917;-83
2022/09/16 10:27:22;;;;;;;;;;;29.00;37.60;;;;;;6119144;23;19921;-82
2022/09/16 10:30:09;;;;;;;;;;;29.10;38.40;;;;;;6096163;23;19917;-82
2022/09/16 10:32:59;;;;;;;;;;;29.20;36.90;;;;;;6085122;23;20314;-82
2022/09/16 10:35:27;;;;;;;;;;;29.20;37.30;;;;;;6088562;23;19921;-83
2022/09/16 10:37:55;;;;;;;;;;;28.90;36.20;;;;;;6120247;23;19917;-82
2022/09/16 10:40:23;;;;;;;;;;;28.60;37.50;;;;;;6118350;23;20334;-82
2022/09/16 10:42:55;;;;;;;;;;;28.90;36.10;;;;;;6119751;23;20000;-82
2022/09/16 10:45:22;;;;;;;;;;;29.20;36.20;;;;;;6118419;23;19972;-82
2022/09/16 10:47:50;;;;;;;;;;;29.20;36.10;;;;;;6094902;23;19917;-82
2022/09/16 10:50:18;;;;;;;;;;;29.30;36.10;;;;;;6118592;23;19993;-81
2022/09/16 10:52:46;;;;;;;;;;;29.50;34.80;;;;;;6119790;23;19917;-82
2022/09/16 10:55:18;;;;;;;;;;;29.50;35.20;;;;;;6117504;23;19917;-82
2022/09/16 10:57:45;;;;;;;;;;;29.60;34.70;;;;;;6095385;23;19941;-82
2022/09/16 11:00:13;;;;;;;;;;;29.70;34.30;;;;;;6118583;23;19921;-82
2022/09/16 11:02:47;;;;;;;;;;;29.40;35.50;;;;;;6095430;23;20471;-82
2022/09/16 11:05:25;;;;;;;;;;;28.90;33.80;;;;;;6116638;23;19987;-82
2022/09/16 11:08:01;;;;;;;;;;;28.90;34.00;;;;;;6094495;23;20227;-82
2022/09/16 11:10:36;;;;;;;;;;;29.10;34.50;;;;;;6117923;23;20331;-83
2022/09/16 11:13:03;;;;;;;;;;;29.40;34.30;;;;;;6119189;23;19917;-82
2022/09/16 11:15:51;;;;;;;;;;;29.70;33.50;;;;;;6094213;23;20308;-83
2022/09/16 11:18:32;;;;;;;;;;;29.90;33.20;;;;;;6117931;23;19984;-82
2022/09/16 11:21:15;;;;;;;;;;;29.50;32.80;;;;;;6095450;23;19987;-81
2022/09/16 11:23:48;;;;;;;;;;;29.60;35.10;;;;;;6094185;23;19917;-82
2022/09/16 11:26:34;;;;;;;;;;;30.00;33.20;;;;;;6117561;23;19917;-82
2022/09/16 11:29:14;;;;;;;;;;;30.30;33.40;;;;;;6094126;23;20258;-82
2022/09/16 11:32:07;;;;;;;;;;;30.50;33.80;;;;;;6118497;23;19924;-79
2022/09/16 11:34:34;;;;;;;;;;;30.60;32.70;;;;;;6071434;23;19962;-82
2022/09/16 11:37:19;;;;;;;;;;;30.50;32.60;;;;;;6093684;23;19924;-82
2022/09/16 11:40:05;;;;;;;;;;;30.40;31.90;;;;;;6093766;23;19992;-81
2022/09/16 11:42:45;;;;;;;;;;;30.20;33.20;;;;;;6094555;23;19928;-82
2022/09/16 11:45:21;;;;;;;;;;;30.30;32.80;;;;;;6118655;23;20298;-82
2022/09/16 11:47:51;;;;;;;;;;;30.20;32.50;;;;;;6093424;23;19917;-82
2022/09/16 11:50:36;;;;;;;;;;;30.10;32.80;;;;;;6094541;23;20253;-80
2022/09/16 11:53:09;;;;;;;;;;;30.10;31.80;;;;;;6093977;23;19937;-80
2022/09/16 11:55:52;;;;;;;;;;;30.40;32.10;;;;;;6118781;23;19955;-81
2022/09/16 11:58:19;;;;;;;;;;;30.70;32.50;;;;;;6118557;23;19936;-81
2022/09/16 12:00:48;;;;;;;;;;;30.60;32.20;;;;;;6095068;23;20393;-81
2022/09/16 12:03:18;;;;;;;;;;;30.60;30.50;;;;;;6118396;23;19931;-81
2022/09/16 12:05:52;;;;;;;;;;;30.30;31.20;;;;;;6094764;23;19940;-81
2022/09/16 12:08:25;;;;;;;;;;;30.30;31.30;;;;;;6117861;23;19917;-81
2022/09/16 12:11:11;;;;;;;;;;;30.40;30.90;;;;;;6119131;23;19996;-80
2022/09/16 12:13:45;;;;;;;;;;;30.60;32.70;;;;;;6093718;23;19988;-81
2022/09/16 12:16:13;;;;;;;;;;;30.40;31.20;;;;;;6118605;23;19917;-81
2022/09/16 12:18:43;;;;;;;;;;;30.40;32.60;;;;;;6118326;23;19973;-81
2022/09/16 12:21:24;;;;;;;;;;;30.70;32.20;;;;;;6119540;23;19917;-81
2022/09/16 12:23:56;;;;;;;;;;;30.70;31.00;;;;;;6118180;23;19992;-81
2022/09/16 12:26:25;;;;;;;;;;;31.00;31.40;;;;;;6118523;23;19920;-81
2022/09/16 12:29:05;;;;;;;;;;;31.10;30.50;;;;;;6117921;23;19992;-81
2022/09/16 12:31:39;;;;;;;;;;;31.30;30.40;;;;;;6117949;23;19917;-81
2022/09/16 12:34:18;;;;;;;;;;;31.40;30.10;;;;;;6118816;23;20373;-81
2022/09/16 12:36:47;;;;;;;;;;;31.50;30.10;;;;;;6117701;23;19984;-81
2022/09/16 12:39:14;;;;;;;;;;;31.50;30.10;;;;;;6118642;23;19972;-81
2022/09/16 12:42:00;;;;;;;;;;;31.30;29.90;;;;;;6118088;23;19941;-81
2022/09/16 12:44:46;;;;;;;;;;;31.20;30.50;;;;;;6118732;23;20319;-80
2022/09/16 12:47:13;;;;;;;;;;;30.70;30.50;;;;;;6093863;23;19940;-80
2022/09/16 12:49:58;;;;;;;;;;;30.20;31.00;;;;;;6093725;23;19941;-80
2022/09/16 12:52:28;;;;;;;;;;;29.80;31.90;;;;;;6095073;23;19923;-81
2022/09/16 12:55:13;;;;;;;;;;;29.60;33.30;;;;;;6094562;23;20017;-81
2022/09/16 12:58:04;;;;;;;;;;;29.80;32.90;;;;;;6093424;23;19995;-81
2022/09/16 13:00:33;;;;;;;;;;;29.90;32.00;;;;;;6086245;23;19992;-80
2022/09/16 13:03:10;;;;;;;;;;;29.90;32.10;;;;;;6095422;23;19941;-81
2022/09/16 13:05:38;;;;;;;;;;;29.80;32.00;;;;;;6119780;23;19941;-81
2022/09/16 13:08:18;;;;;;;;;;;29.50;32.80;;;;;;6121671;23;20334;-81
2022/09/16 13:10:53;;;;;;;;;;;29.50;33.90;;;;;;6121138;23;19941;-80
2022/09/16 13:13:38;;;;;;;;;;;29.60;34.30;;;;;;6117200;23;19996;-82
2022/09/16 13:16:06;;;;;;;;;;;29.50;33.90;;;;;;6120498;23;19987;-80
2022/09/16 13:18:42;;;;;;;;;;;29.50;33.10;;;;;;6120126;23;19924;-81
2022/09/16 13:21:24;;;;;;;;;;;29.30;34.80;;;;;;6095819;23;19917;-80
2022/09/16 13:23:53;;;;;;;;;;;29.10;34.40;;;;;;6095451;23;19960;-81
2022/09/16 13:26:19;;;;;;;;;;;29.20;34.80;;;;;;6120694;23;19917;-81
2022/09/16 13:28:47;;;;;;;;;;;29.20;35.80;;;;;;6096624;23;20352;-81
2022/09/16 13:31:15;;;;;;;;;;;29.20;36.20;;;;;;6120522;23;20299;-80
2022/09/16 13:33:43;;;;;;;;;;;29.30;35.50;;;;;;6096177;23;19945;-81
2022/09/16 13:36:10;;;;;;;;;;;29.10;35.70;;;;;;6120549;23;19949;-81
2022/09/16 13:38:38;;;;;;;;;;;29.20;36.00;;;;;;6095901;23;20315;-80
2022/09/16 13:41:05;;;;;;;;;;;29.20;36.00;;;;;;6120820;23;19988;-80
2022/09/16 13:43:40;;;;;;;;;;;29.20;36.10;;;;;;6096705;23;19917;-81
2022/09/16 13:46:25;;;;;;;;;;;29.20;36.70;;;;;;6095652;23;19924;-80
2022/09/16 13:48:52;;;;;;;;;;;29.20;35.30;;;;;;6119205;23;19923;-80
2022/09/16 13:51:20;;;;;;;;;;;29.20;36.00;;;;;;6095025;23;20254;-81
2022/09/16 13:53:48;;;;;;;;;;;29.30;36.80;;;;;;6118678;23;19924;-82
2022/09/16 13:56:16;;;;;;;;;;;29.20;35.40;;;;;;6119772;23;19921;-81
2022/09/16 13:58:55;;;;;;;;;;;29.20;36.10;;;;;;6095236;23;19956;-81
2022/09/16 14:01:28;;;;;;;;;;;29.10;37.30;;;;;;6096041;23;19923;-81
2022/09/16 14:04:40;;;;;;;;;;;29.00;36.00;;;;;;6095165;23;20250;-80
2022/09/16 14:07:21;;;;;;;;;;;28.90;37.00;;;;;;6095504;23;19917;-81
2022/09/16 14:09:59;;;;;;;;;;;28.90;35.10;;;;;;6095852;23;19992;-82
2022/09/16 14:12:32;;;;;;;;;;;28.70;35.20;;;;;;6116976;23;19945;-82
2022/09/16 14:14:59;;;;;;;;;;;28.80;35.80;;;;;;6120044;23;19923;-81
2022/09/16 14:17:28;;;;;;;;;;;29.00;36.50;;;;;;6119712;23;19921;-81
2022/09/16 14:19:58;;;;;;;;;;;29.30;35.30;;;;;;6096855;23;19933;-81
2022/09/16 14:22:26;;;;;;;;;;;29.70;35.00;;;;;;6119128;23;19972;-81
2022/09/16 14:24:53;;;;;;;;;;;29.90;33.70;;;;;;6119810;23;20278;-82
2022/09/16 14:27:38;;;;;;;;;;;30.00;33.20;;;;;;6116017;23;19972;-81
2022/09/16 14:30:13;;;;;;;;;;;29.90;33.40;;;;;;6120135;23;19924;-82
2022/09/16 14:32:40;;;;;;;;;;;29.80;33.70;;;;;;6119025;23;19918;-81
2022/09/16 14:35:14;;;;;;;;;;;30.00;34.10;;;;;;6119622;23;19917;-81
2022/09/16 14:37:43;;;;;;;;;;;30.00;33.50;;;;;;6118302;23;19921;-81
2022/09/16 14:40:14;;;;;;;;;;;30.10;34.40;;;;;;6119502;23;19932;-81
2022/09/16 14:42:47;;;;;;;;;;;30.30;34.50;;;;;;6118446;23;19921;-82
2022/09/16 14:45:18;;;;;;;;;;;30.40;33.90;;;;;;6095446;23;20263;-80